sensor_id;sensor_type;location;lat;lon;timestamp;pressure;altitude;pressure_sealevel;temperature
73662;BMP280;61956;52.540;13.382;2023-06-22T00:01:28;90216.91;;;21.88
73662;BMP280;61956;52.540;13.382;2023-06-22T00:03:57;90056.66;;;21.82
73662;BMP280;61956;52.540;13.382;2023-06-22T00:06:26;90014.44;;;21.80
73662;BMP280;61956;52.540;13.382;2023-06-22T00:08:55;89980.69;;;21.76
73662;BMP280;61956;52.540;13.382;2023-06-22T00:11:24;89875.91;;;21.73
73662;BMP280;61956;52.540;13.382;2023-06-22T00:13:56;89869.84;;;21.70
73662;BMP280;61956;52.540;13.382;2023-06-22T00:16:25;89547.19;;;21.63
73662;BMP280;61956;52.540;13.382;2023-06-22T00:18:54;89589.72;;;21.59
73662;BMP280;61956;52.540;13.382;2023-06-22T00:21:26;89658.69;;;21.58
73662;BMP280;61956;52.540;13.382;2023-06-22T00:23:55;89515.09;;;21.53
73662;BMP280;61956;52.540;13.382;2023-06-22T00:26:24;89703.06;;;21.52
73662;BMP280;61956;52.540;13.382;2023-06-22T00:28:56;89530.53;;;21.47
73662;BMP280;61956;52.540;13.382;2023-06-22T00:31:25;89821.16;;;21.48
73662;BMP280;61956;52.540;13.382;2023-06-22T00:33:54;89456.59;;;21.41
73662;BMP280;61956;52.540;13.382;2023-06-22T00:36:23;90305.09;;;21.48
73662;BMP280;61956;52.540;13.382;2023-06-22T00:38:52;89799.91;;;21.44
73662;BMP280;61956;52.540;13.382;2023-06-22T00:41:23;89405.75;;;21.36
73662;BMP280;61956;52.540;13.382;2023-06-22T00:43:56;89401.53;;;21.31
73662;BMP280;61956;52.540;13.382;2023-06-22T00:46:26;88976.00;;;21.23
73662;BMP280;61956;52.540;13.382;2023-06-22T00:48:55;88871.97;;;21.18
73662;BMP280;61956;52.540;13.382;2023-06-22T00:51:24;88940.13;;;21.14
73662;BMP280;61956;52.540;13.382;2023-06-22T00:53:54;89050.50;;;21.14
73662;BMP280;61956;52.540;13.382;2023-06-22T00:56:24;89279.13;;;21.14
73662;BMP280;61956;52.540;13.382;2023-06-22T00:58:58;88904.34;;;21.07
73662;BMP280;61956;52.540;13.382;2023-06-22T01:01:29;89233.47;;;21.08
73662;BMP280;61956;52.540;13.382;2023-06-22T01:04:00;89028.97;;;21.04
73662;BMP280;61956;52.540;13.382;2023-06-22T01:06:35;88919.03;;;20.98
73662;BMP280;61956;52.540;13.382;2023-06-22T01:09:15;88957.00;;;20.95
73662;BMP280;61956;52.540;13.382;2023-06-22T01:11:54;88902.41;;;20.94
73662;BMP280;61956;52.540;13.382;2023-06-22T01:14:35;88879.28;;;20.90
73662;BMP280;61956;52.540;13.382;2023-06-22T01:17:11;89632.97;;;20.98
73662;BMP280;61956;52.540;13.382;2023-06-22T01:19:46;89465.97;;;20.95
73662;BMP280;61956;52.540;13.382;2023-06-22T01:22:23;88653.81;;;20.85
73662;BMP280;61956;52.540;13.382;2023-06-22T01:25:03;88251.06;;;20.76
73662;BMP280;61956;52.540;13.382;2023-06-22T01:27:47;88328.25;;;20.69
73662;BMP280;61956;52.540;13.382;2023-06-22T01:30:30;88889.03;;;20.74
73662;BMP280;61956;52.540;13.382;2023-06-22T01:33:05;89474.91;;;20.78
73662;BMP280;61956;52.540;13.382;2023-06-22T01:35:35;89262.72;;;20.76
73662;BMP280;61956;52.540;13.382;2023-06-22T01:38:05;88969.66;;;20.71
73662;BMP280;61956;52.540;13.382;2023-06-22T01:40:36;88825.06;;;20.67
73662;BMP280;61956;52.540;13.382;2023-06-22T01:43:06;89091.63;;;20.68
73662;BMP280;61956;52.540;13.382;2023-06-22T01:45:39;88876.22;;;20.66
73662;BMP280;61956;52.540;13.382;2023-06-22T01:48:08;88595.03;;;20.60
73662;BMP280;61956;52.540;13.382;2023-06-22T01:50:38;88680.91;;;20.58
73662;BMP280;61956;52.540;13.382;2023-06-22T01:53:08;89055.03;;;20.59
73662;BMP280;61956;52.540;13.382;2023-06-22T01:55:37;88950.59;;;20.57
73662;BMP280;61956;52.540;13.382;2023-06-22T01:58:06;89841.91;;;20.66
73662;BMP280;61956;52.540;13.382;2023-06-22T02:00:40;88918.41;;;20.57
73662;BMP280;61956;52.540;13.382;2023-06-22T02:03:14;88756.75;;;20.51
73662;BMP280;61956;52.540;13.382;2023-06-22T02:05:49;88601.03;;;20.47
73662;BMP280;61956;52.540;13.382;2023-06-22T02:08:23;89327.84;;;20.55
73662;BMP280;61956;52.540;13.382;2023-06-22T02:10:59;89248.88;;;20.50
73662;BMP280;61956;52.540;13.382;2023-06-22T02:13:31;89694.91;;;20.56
73662;BMP280;61956;52.540;13.382;2023-06-22T02:16:04;89603.09;;;20.58
73662;BMP280;61956;52.540;13.382;2023-06-22T02:18:34;90702.41;;;20.69
73662;BMP280;61956;52.540;13.382;2023-06-22T02:21:03;90704.09;;;20.74
73662;BMP280;61956;52.540;13.382;2023-06-22T02:23:32;90805.34;;;20.75
73662;BMP280;61956;52.540;13.382;2023-06-22T02:26:02;90193.44;;;20.69
73662;BMP280;61956;52.540;13.382;2023-06-22T02:28:32;90825.81;;;20.76
73662;BMP280;61956;52.540;13.382;2023-06-22T02:31:04;90824.06;;;20.79
73662;BMP280;61956;52.540;13.382;2023-06-22T02:33:32;90826.69;;;20.79
73662;BMP280;61956;52.540;13.382;2023-06-22T02:36:02;90690.59;;;20.77
73662;BMP280;61956;52.540;13.382;2023-06-22T02:38:35;91825.16;;;20.90
73662;BMP280;61956;52.540;13.382;2023-06-22T02:41:05;91776.31;;;20.95
73662;BMP280;61956;52.540;13.382;2023-06-22T02:43:38;91956.91;;;21.00
73662;BMP280;61956;52.540;13.382;2023-06-22T02:46:10;91962.34;;;21.02
73662;BMP280;61956;52.540;13.382;2023-06-22T02:48:41;92443.75;;;21.10
73662;BMP280;61956;52.540;13.382;2023-06-22T02:51:11;92066.91;;;21.09
73662;BMP280;61956;52.540;13.382;2023-06-22T02:53:41;92269.13;;;21.13
73662;BMP280;61956;52.540;13.382;2023-06-22T02:56:13;92187.56;;;21.13
73662;BMP280;61956;52.540;13.382;2023-06-22T02:58:44;92328.63;;;21.16
73662;BMP280;61956;52.540;13.382;2023-06-22T03:01:15;92121.50;;;21.16
73662;BMP280;61956;52.540;13.382;2023-06-22T03:03:50;91765.34;;;21.12
73662;BMP280;61956;52.540;13.382;2023-06-22T03:06:19;91325.63;;;21.05
73662;BMP280;61956;52.540;13.382;2023-06-22T03:08:58;91684.81;;;21.09
73662;BMP280;61956;52.540;13.382;2023-06-22T03:11:30;91897.34;;;21.10
73662;BMP280;61956;52.540;13.382;2023-06-22T03:14:01;92067.28;;;21.13
73662;BMP280;61956;52.540;13.382;2023-06-22T03:16:33;92339.84;;;21.16
73662;BMP280;61956;52.540;13.382;2023-06-22T03:19:02;92145.91;;;21.17
73662;BMP280;61956;52.540;13.382;2023-06-22T03:21:31;92286.72;;;21.18
73662;BMP280;61956;52.540;13.382;2023-06-22T03:24:01;92313.97;;;21.20
73662;BMP280;61956;52.540;13.382;2023-06-22T03:26:30;91961.78;;;21.17
73662;BMP280;61956;52.540;13.382;2023-06-22T03:29:00;92068.91;;;21.16
73662;BMP280;61956;52.540;13.382;2023-06-22T03:31:33;92946.34;;;21.28
73662;BMP280;61956;52.540;13.382;2023-06-22T03:34:02;92309.81;;;21.25
73662;BMP280;61956;52.540;13.382;2023-06-22T03:36:31;92654.22;;;21.28
73662;BMP280;61956;52.540;13.382;2023-06-22T03:39:02;92875.72;;;21.33
73662;BMP280;61956;52.540;13.382;2023-06-22T03:41:31;92291.81;;;21.29
73662;BMP280;61956;52.540;13.382;2023-06-22T03:44:00;91564.59;;;21.17
73662;BMP280;61956;52.540;13.382;2023-06-22T03:46:29;92060.00;;;21.19
73662;BMP280;61956;52.540;13.382;2023-06-22T03:49:01;91853.38;;;21.18
73662;BMP280;61956;52.540;13.382;2023-06-22T03:51:32;91025.34;;;21.07
73662;BMP280;61956;52.540;13.382;2023-06-22T03:54:01;91646.09;;;21.09
73662;BMP280;61956;52.540;13.382;2023-06-22T03:56:30;92435.50;;;21.19
73662;BMP280;61956;52.540;13.382;2023-06-22T03:59:00;92337.66;;;21.20
73662;BMP280;61956;52.540;13.382;2023-06-22T04:01:29;92644.00;;;21.25
73662;BMP280;61956;52.540;13.382;2023-06-22T04:04:00;92515.06;;;21.25
73662;BMP280;61956;52.540;13.382;2023-06-22T04:06:29;91840.78;;;21.17
73662;BMP280;61956;52.540;13.382;2023-06-22T04:09:00;92411.50;;;21.22
73662;BMP280;61956;52.540;13.382;2023-06-22T04:11:29;92054.72;;;21.19
73662;BMP280;61956;52.540;13.382;2023-06-22T04:13:58;92466.28;;;21.24
73662;BMP280;61956;52.540;13.382;2023-06-22T04:16:27;92220.66;;;21.21
73662;BMP280;61956;52.540;13.382;2023-06-22T04:18:57;92151.84;;;21.17
73662;BMP280;61956;52.540;13.382;2023-06-22T04:21:29;92755.91;;;21.26
73662;BMP280;61956;52.540;13.382;2023-06-22T04:23:58;92937.47;;;21.31
73662;BMP280;61956;52.540;13.382;2023-06-22T04:26:27;93233.94;;;21.35
73662;BMP280;61956;52.540;13.382;2023-06-22T04:28:56;93534.28;;;21.42
73662;BMP280;61956;52.540;13.382;2023-06-22T04:31:25;93685.84;;;21.49
73662;BMP280;61956;52.540;13.382;2023-06-22T04:33:57;93872.81;;;21.54
73662;BMP280;61956;52.540;13.382;2023-06-22T04:36:36;93283.19;;;21.51
73662;BMP280;61956;52.540;13.382;2023-06-22T04:39:07;93536.94;;;21.53
73662;BMP280;61956;52.540;13.382;2023-06-22T04:41:39;93875.25;;;21.58
73662;BMP280;61956;52.540;13.382;2023-06-22T04:44:12;94173.22;;;21.66
73662;BMP280;61956;52.540;13.382;2023-06-22T04:46:50;93404.78;;;21.61
73662;BMP280;61956;52.540;13.382;2023-06-22T04:49:26;93882.69;;;21.65
73662;BMP280;61956;52.540;13.382;2023-06-22T04:52:01;94577.69;;;21.76
73662;BMP280;61956;52.540;13.382;2023-06-22T04:54:32;94553.34;;;21.81
73662;BMP280;61956;52.540;13.382;2023-06-22T04:57:03;95070.19;;;21.92
73662;BMP280;61956;52.540;13.382;2023-06-22T04:59:37;95323.78;;;22.00
73662;BMP280;61956;52.540;13.382;2023-06-22T05:02:07;95813.53;;;22.12
73662;BMP280;61956;52.540;13.382;2023-06-22T05:04:37;96011.03;;;22.23
73662;BMP280;61956;52.540;13.382;2023-06-22T05:07:09;96299.88;;;22.34
73662;BMP280;61956;52.540;13.382;2023-06-22T05:09:38;97180.53;;;22.55
73662;BMP280;61956;52.540;13.382;2023-06-22T05:12:08;96851.44;;;22.61
73662;BMP280;61956;52.540;13.382;2023-06-22T05:14:38;96903.31;;;22.72
73662;BMP280;61956;52.540;13.382;2023-06-22T05:17:07;96371.34;;;22.69
73662;BMP280;61956;52.540;13.382;2023-06-22T05:19:39;96293.19;;;22.72
73662;BMP280;61956;52.540;13.382;2023-06-22T05:22:17;96595.56;;;22.80
73662;BMP280;61956;52.540;13.382;2023-06-22T05:24:46;96276.69;;;22.80
73662;BMP280;61956;52.540;13.382;2023-06-22T05:27:16;96513.94;;;22.85
73662;BMP280;61956;52.540;13.382;2023-06-22T05:29:45;96275.78;;;22.87
73662;BMP280;61956;52.540;13.382;2023-06-22T05:32:14;96396.00;;;22.91
73662;BMP280;61956;52.540;13.382;2023-06-22T05:34:44;96114.53;;;22.90
73662;BMP280;61956;52.540;13.382;2023-06-22T05:37:16;96017.19;;;22.89
73662;BMP280;61956;52.540;13.382;2023-06-22T05:39:45;96158.97;;;22.92
73662;BMP280;61956;52.540;13.382;2023-06-22T05:42:14;96199.69;;;22.94
73662;BMP280;61956;52.540;13.382;2023-06-22T05:44:43;96058.50;;;22.95
73662;BMP280;61956;52.540;13.382;2023-06-22T05:47:12;96095.03;;;22.97
73662;BMP280;61956;52.540;13.382;2023-06-22T05:49:42;96291.19;;;23.01
73662;BMP280;61956;52.540;13.382;2023-06-22T05:52:11;96798.00;;;23.10
73662;BMP280;61956;52.540;13.382;2023-06-22T05:54:43;97404.59;;;23.25
73662;BMP280;61956;52.540;13.382;2023-06-22T05:57:12;97652.69;;;23.34
73662;BMP280;61956;52.540;13.382;2023-06-22T05:59:41;97476.16;;;23.41
73662;BMP280;61956;52.540;13.382;2023-06-22T06:02:10;97522.19;;;23.47
73662;BMP280;61956;52.540;13.382;2023-06-22T06:04:39;97385.75;;;23.50
73662;BMP280;61956;52.540;13.382;2023-06-22T06:07:09;97116.69;;;23.50
73662;BMP280;61956;52.540;13.382;2023-06-22T06:09:38;96713.59;;;23.48
73662;BMP280;61956;52.540;13.382;2023-06-22T06:12:10;96454.25;;;23.42
73662;BMP280;61956;52.540;13.382;2023-06-22T06:14:39;96684.94;;;23.46
73662;BMP280;61956;52.540;13.382;2023-06-22T06:17:08;96483.63;;;23.44
73662;BMP280;61956;52.540;13.382;2023-06-22T06:19:37;96526.69;;;23.45
73662;BMP280;61956;52.540;13.382;2023-06-22T06:22:06;97618.41;;;23.61
73662;BMP280;61956;52.540;13.382;2023-06-22T06:24:35;100480.84;;;24.19
73662;BMP280;61956;52.540;13.382;2023-06-22T06:27:05;99589.91;;;24.43
73662;BMP280;61956;52.540;13.382;2023-06-22T06:29:36;98611.41;;;24.34
73662;BMP280;61956;52.540;13.382;2023-06-22T06:32:08;98872.66;;;24.42
73662;BMP280;61956;52.540;13.382;2023-06-22T06:34:37;97956.56;;;24.32
73662;BMP280;61956;52.540;13.382;2023-06-22T06:37:07;98027.00;;;24.33
73662;BMP280;61956;52.540;13.382;2023-06-22T06:39:36;98369.13;;;24.39
73662;BMP280;61956;52.540;13.382;2023-06-22T06:42:05;100108.72;;;24.71
73662;BMP280;61956;52.540;13.382;2023-06-22T06:44:39;104601.03;;;25.71
73662;BMP280;61956;52.540;13.382;2023-06-22T06:47:08;99779.72;;;25.55
73662;BMP280;61956;52.540;13.382;2023-06-22T06:49:37;106222.63;;;26.86
73662;BMP280;61956;52.540;13.382;2023-06-22T06:52:07;106356.38;;;27.86
73662;BMP280;61956;52.540;13.382;2023-06-22T06:54:36;105056.84;;;28.32
73662;BMP280;61956;52.540;13.382;2023-06-22T06:57:07;104312.03;;;28.58
73662;BMP280;61956;52.540;13.382;2023-06-22T06:59:41;104241.56;;;28.93
73662;BMP280;61956;52.540;13.382;2023-06-22T07:02:10;102918.44;;;28.78
73662;BMP280;61956;52.540;13.382;2023-06-22T07:04:40;103550.72;;;29.16
73662;BMP280;61956;52.540;13.382;2023-06-22T07:07:13;101803.28;;;28.98
73662;BMP280;61956;52.540;13.382;2023-06-22T07:09:42;100521.09;;;28.59
73662;BMP280;61956;52.540;13.382;2023-06-22T07:12:11;98619.22;;;28.26
73662;BMP280;61956;52.540;13.382;2023-06-22T07:14:44;100593.34;;;28.21
73662;BMP280;61956;52.540;13.382;2023-06-22T07:17:13;100327.47;;;28.32
73662;BMP280;61956;52.540;13.382;2023-06-22T07:19:42;97512.03;;;27.69
73662;BMP280;61956;52.540;13.382;2023-06-22T07:22:11;100491.88;;;27.87
73662;BMP280;61956;52.540;13.382;2023-06-22T07:24:40;102337.13;;;28.80
73662;BMP280;61956;52.540;13.382;2023-06-22T07:27:10;98439.56;;;27.96
73662;BMP280;61956;52.540;13.382;2023-06-22T07:29:45;105232.84;;;29.43
73662;BMP280;61956;52.540;13.382;2023-06-22T07:32:14;101329.66;;;29.55
73662;BMP280;61956;52.540;13.382;2023-06-22T07:34:43;97691.97;;;28.33
73662;BMP280;61956;52.540;13.382;2023-06-22T07:37:12;96679.00;;;27.76
73662;BMP280;61956;52.540;13.382;2023-06-22T07:39:46;100835.69;;;28.15
73662;BMP280;61956;52.540;13.382;2023-06-22T07:42:16;102795.56;;;29.04
73662;BMP280;61956;52.540;13.382;2023-06-22T07:44:49;101047.56;;;29.04
73662;BMP280;61956;52.540;13.382;2023-06-22T07:47:18;102657.03;;;29.32
73662;BMP280;61956;52.540;13.382;2023-06-22T07:49:51;100734.38;;;29.17
73662;BMP280;61956;52.540;13.382;2023-06-22T07:52:20;98865.88;;;28.72
73662;BMP280;61956;52.540;13.382;2023-06-22T07:54:49;97946.84;;;28.31
73662;BMP280;61956;52.540;13.382;2023-06-22T07:57:19;96438.97;;;27.78
73662;BMP280;61956;52.540;13.382;2023-06-22T07:59:51;96410.00;;;27.47
73662;BMP280;61956;52.540;13.382;2023-06-22T08:02:22;97876.38;;;27.58
73662;BMP280;61956;52.540;13.382;2023-06-22T08:04:51;98611.25;;;27.72
73662;BMP280;61956;52.540;13.382;2023-06-22T08:07:21;98713.50;;;27.82
73662;BMP280;61956;52.540;13.382;2023-06-22T08:09:50;98368.72;;;27.79
73662;BMP280;61956;52.540;13.382;2023-06-22T08:12:19;100481.81;;;28.30
73662;BMP280;61956;52.540;13.382;2023-06-22T08:14:51;99007.78;;;28.29
73662;BMP280;61956;52.540;13.382;2023-06-22T08:17:20;97191.56;;;27.63
73662;BMP280;61956;52.540;13.382;2023-06-22T08:19:49;97457.72;;;27.54
73662;BMP280;61956;52.540;13.382;2023-06-22T08:22:18;97710.31;;;27.52
73662;BMP280;61956;52.540;13.382;2023-06-22T08:24:50;97141.56;;;27.36
73662;BMP280;61956;52.540;13.382;2023-06-22T08:27:19;96879.41;;;27.22
73662;BMP280;61956;52.540;13.382;2023-06-22T08:29:52;96742.22;;;27.12
73662;BMP280;61956;52.540;13.382;2023-06-22T08:32:23;96892.81;;;27.09
73662;BMP280;61956;52.540;13.382;2023-06-22T08:34:53;97173.41;;;27.05
73662;BMP280;61956;52.540;13.382;2023-06-22T08:37:22;97239.47;;;27.06
73662;BMP280;61956;52.540;13.382;2023-06-22T08:39:56;97190.00;;;27.09
73662;BMP280;61956;52.540;13.382;2023-06-22T08:42:25;97472.75;;;27.09
73662;BMP280;61956;52.540;13.382;2023-06-22T08:44:57;97138.81;;;27.05
73662;BMP280;61956;52.540;13.382;2023-06-22T08:47:27;97154.28;;;26.97
73662;BMP280;61956;52.540;13.382;2023-06-22T08:49:56;97957.31;;;27.11
73662;BMP280;61956;52.540;13.382;2023-06-22T08:52:28;97437.50;;;27.05
73662;BMP280;61956;52.540;13.382;2023-06-22T08:54:57;97648.75;;;27.08
73662;BMP280;61956;52.540;13.382;2023-06-22T08:57:26;97994.50;;;27.15
73662;BMP280;61956;52.540;13.382;2023-06-22T09:00:02;97934.81;;;27.16
73662;BMP280;61956;52.540;13.382;2023-06-22T09:02:37;97807.88;;;27.13
73662;BMP280;61956;52.540;13.382;2023-06-22T09:05:06;97789.97;;;27.13
73662;BMP280;61956;52.540;13.382;2023-06-22T09:07:36;97843.56;;;27.15
73662;BMP280;61956;52.540;13.382;2023-06-22T09:10:06;98419.41;;;27.25
73662;BMP280;61956;52.540;13.382;2023-06-22T09:12:36;99991.94;;;27.67
73662;BMP280;61956;52.540;13.382;2023-06-22T09:15:09;100422.59;;;27.91
73662;BMP280;61956;52.540;13.382;2023-06-22T09:17:39;100132.75;;;27.98
73662;BMP280;61956;52.540;13.382;2023-06-22T09:20:10;99639.50;;;27.95
73662;BMP280;61956;52.540;13.382;2023-06-22T09:22:39;99920.63;;;28.08
73662;BMP280;61956;52.540;13.382;2023-06-22T09:25:09;99158.13;;;27.90
73662;BMP280;61956;52.540;13.382;2023-06-22T09:27:38;98617.59;;;27.82
73662;BMP280;61956;52.540;13.382;2023-06-22T09:30:11;98539.28;;;27.75
73662;BMP280;61956;52.540;13.382;2023-06-22T09:32:40;98459.84;;;27.67
73662;BMP280;61956;52.540;13.382;2023-06-22T09:35:09;99138.38;;;27.77
73662;BMP280;61956;52.540;13.382;2023-06-22T09:37:39;99436.88;;;27.91
73662;BMP280;61956;52.540;13.382;2023-06-22T09:40:09;98255.34;;;27.74
73662;BMP280;61956;52.540;13.382;2023-06-22T09:42:41;97633.75;;;27.56
73662;BMP280;61956;52.540;13.382;2023-06-22T09:45:13;97984.22;;;27.50
73662;BMP280;61956;52.540;13.382;2023-06-22T09:47:42;99223.66;;;27.77
73662;BMP280;61956;52.540;13.382;2023-06-22T09:50:12;98799.63;;;27.75
73662;BMP280;61956;52.540;13.382;2023-06-22T09:52:41;99654.31;;;27.92
73662;BMP280;61956;52.540;13.382;2023-06-22T09:55:16;98890.06;;;27.89
73662;BMP280;61956;52.540;13.382;2023-06-22T09:57:45;98723.78;;;27.83
73662;BMP280;61956;52.540;13.382;2023-06-22T10:00:18;99330.25;;;27.91
73662;BMP280;61956;52.540;13.382;2023-06-22T10:02:48;99381.63;;;27.95
73662;BMP280;61956;52.540;13.382;2023-06-22T10:05:17;99514.16;;;28.02
73662;BMP280;61956;52.540;13.382;2023-06-22T10:07:49;99654.72;;;28.05
73662;BMP280;61956;52.540;13.382;2023-06-22T10:10:18;100051.44;;;28.19
73662;BMP280;61956;52.540;13.382;2023-06-22T10:12:54;99345.78;;;28.14
73662;BMP280;61956;52.540;13.382;2023-06-22T10:15:26;99630.75;;;28.16
73662;BMP280;61956;52.540;13.382;2023-06-22T10:17:55;99294.31;;;28.14
73662;BMP280;61956;52.540;13.382;2023-06-22T10:20:24;98996.56;;;28.03
73662;BMP280;61956;52.540;13.382;2023-06-22T10:22:54;99638.00;;;28.19
73662;BMP280;61956;52.540;13.382;2023-06-22T10:25:24;100332.06;;;28.35
73662;BMP280;61956;52.540;13.382;2023-06-22T10:27:53;100838.75;;;28.56
73662;BMP280;61956;52.540;13.382;2023-06-22T10:30:23;100634.03;;;28.63
73662;BMP280;61956;52.540;13.382;2023-06-22T10:32:55;100485.38;;;28.68
73662;BMP280;61956;52.540;13.382;2023-06-22T10:35:24;99768.38;;;28.56
73662;BMP280;61956;52.540;13.382;2023-06-22T10:37:53;99878.53;;;28.53
73662;BMP280;61956;52.540;13.382;2023-06-22T10:40:23;99821.75;;;28.56
73662;BMP280;61956;52.540;13.382;2023-06-22T10:42:52;99907.91;;;28.56
73662;BMP280;61956;52.540;13.382;2023-06-22T10:45:21;99800.41;;;28.56
73662;BMP280;61956;52.540;13.382;2023-06-22T10:47:53;99487.41;;;28.52
73662;BMP280;61956;52.540;13.382;2023-06-22T10:50:22;100130.22;;;28.60
73662;BMP280;61956;52.540;13.382;2023-06-22T10:52:53;99688.31;;;28.59
73662;BMP280;61956;52.540;13.382;2023-06-22T10:55:22;98889.09;;;28.44
73662;BMP280;61956;52.540;13.382;2023-06-22T10:57:52;98649.59;;;28.32
73662;BMP280;61956;52.540;13.382;2023-06-22T11:00:21;98294.41;;;28.21
73662;BMP280;61956;52.540;13.382;2023-06-22T11:02:53;98239.84;;;28.09
73662;BMP280;61956;52.540;13.382;2023-06-22T11:05:24;98247.50;;;28.07
73662;BMP280;61956;52.540;13.382;2023-06-22T11:07:53;98710.03;;;28.15
73662;BMP280;61956;52.540;13.382;2023-06-22T11:10:22;99706.97;;;28.31
73662;BMP280;61956;52.540;13.382;2023-06-22T11:12:52;99939.09;;;28.45
73662;BMP280;61956;52.540;13.382;2023-06-22T11:15:23;99237.03;;;28.43
73662;BMP280;61956;52.540;13.382;2023-06-22T11:17:55;98340.81;;;28.23
73662;BMP280;61956;52.540;13.382;2023-06-22T11:20:24;98586.16;;;28.20
73662;BMP280;61956;52.540;13.382;2023-06-22T11:22:53;97686.13;;;28.00
73662;BMP280;61956;52.540;13.382;2023-06-22T11:25:22;98490.78;;;28.08
73662;BMP280;61956;52.540;13.382;2023-06-22T11:27:51;99687.50;;;28.30
73662;BMP280;61956;52.540;13.382;2023-06-22T11:30:21;99870.13;;;28.44
73662;BMP280;61956;52.540;13.382;2023-06-22T11:32:50;100654.69;;;28.67
73662;BMP280;61956;52.540;13.382;2023-06-22T11:35:21;100107.41;;;28.70
73662;BMP280;61956;52.540;13.382;2023-06-22T11:37:50;100310.69;;;28.72
73662;BMP280;61956;52.540;13.382;2023-06-22T11:40:21;100536.28;;;28.85
73662;BMP280;61956;52.540;13.382;2023-06-22T11:42:50;100975.72;;;28.99
73662;BMP280;61956;52.540;13.382;2023-06-22T11:45:20;99946.50;;;28.87
73662;BMP280;61956;52.540;13.382;2023-06-22T11:47:49;99041.31;;;28.64
73662;BMP280;61956;52.540;13.382;2023-06-22T11:50:21;99492.69;;;28.66
73662;BMP280;61956;52.540;13.382;2023-06-22T11:52:50;99427.47;;;28.67
73662;BMP280;61956;52.540;13.382;2023-06-22T11:55:20;99419.88;;;28.66
73662;BMP280;61956;52.540;13.382;2023-06-22T11:57:54;98292.72;;;28.47
73662;BMP280;61956;52.540;13.382;2023-06-22T12:00:26;97905.00;;;28.28
73662;BMP280;61956;52.540;13.382;2023-06-22T12:02:55;97989.44;;;28.18
73662;BMP280;61956;52.540;13.382;2023-06-22T12:05:27;97948.78;;;28.14
73662;BMP280;61956;52.540;13.382;2023-06-22T12:07:56;96728.88;;;27.85
73662;BMP280;61956;52.540;13.382;2023-06-22T12:10:26;98895.56;;;28.13
73662;BMP280;61956;52.540;13.382;2023-06-22T12:12:56;99803.44;;;28.44
73662;BMP280;61956;52.540;13.382;2023-06-22T12:15:26;100171.41;;;28.63
73662;BMP280;61956;52.540;13.382;2023-06-22T12:17:55;100429.00;;;28.80
73662;BMP280;61956;52.540;13.382;2023-06-22T12:20:27;100007.50;;;28.78
73662;BMP280;61956;52.540;13.382;2023-06-22T12:22:57;101042.16;;;29.00
73662;BMP280;61956;52.540;13.382;2023-06-22T12:25:26;101448.94;;;29.25
73662;BMP280;61956;52.540;13.382;2023-06-22T12:27:56;100653.16;;;29.22
73662;BMP280;61956;52.540;13.382;2023-06-22T12:30:25;100172.06;;;29.11
73662;BMP280;61956;52.540;13.382;2023-06-22T12:32:54;100813.50;;;29.22
73662;BMP280;61956;52.540;13.382;2023-06-22T12:35:24;99614.22;;;29.03
73662;BMP280;61956;52.540;13.382;2023-06-22T12:37:55;99998.81;;;29.03
73662;BMP280;61956;52.540;13.382;2023-06-22T12:40:25;100310.25;;;29.11
73662;BMP280;61956;52.540;13.382;2023-06-22T12:42:54;100308.00;;;29.16
73662;BMP280;61956;52.540;13.382;2023-06-22T12:45:23;100517.63;;;29.22
73662;BMP280;61956;52.540;13.382;2023-06-22T12:47:54;99210.66;;;28.97
73662;BMP280;61956;52.540;13.382;2023-06-22T12:50:23;99111.59;;;28.88
73662;BMP280;61956;52.540;13.382;2023-06-22T12:52:55;100357.56;;;29.10
73662;BMP280;61956;52.540;13.382;2023-06-22T12:55:24;99500.53;;;29.02
73662;BMP280;61956;52.540;13.382;2023-06-22T12:57:53;99746.97;;;29.06
73662;BMP280;61956;52.540;13.382;2023-06-22T13:00:23;99837.78;;;29.06
73662;BMP280;61956;52.540;13.382;2023-06-22T13:02:52;99087.50;;;28.91
73662;BMP280;61956;52.540;13.382;2023-06-22T13:05:21;100265.22;;;29.13
73662;BMP280;61956;52.540;13.382;2023-06-22T13:07:50;100460.00;;;29.25
73662;BMP280;61956;52.540;13.382;2023-06-22T13:10:22;100347.06;;;29.32
73662;BMP280;61956;52.540;13.382;2023-06-22T13:12:51;100246.25;;;29.32
73662;BMP280;61956;52.540;13.382;2023-06-22T13:15:27;100243.94;;;29.31
73662;BMP280;61956;52.540;13.382;2023-06-22T13:17:57;100402.81;;;29.37
73662;BMP280;61956;52.540;13.382;2023-06-22T13:20:26;101211.19;;;29.51
73662;BMP280;61956;52.540;13.382;2023-06-22T13:22:59;100348.25;;;29.45
73662;BMP280;61956;52.540;13.382;2023-06-22T13:25:31;100541.13;;;29.47
73662;BMP280;61956;52.540;13.382;2023-06-22T13:28:00;100792.53;;;29.54
73662;BMP280;61956;52.540;13.382;2023-06-22T13:30:32;100567.16;;;29.53
73662;BMP280;61956;52.540;13.382;2023-06-22T13:33:01;100088.22;;;29.48
73662;BMP280;61956;52.540;13.382;2023-06-22T13:35:30;100315.81;;;29.50
73662;BMP280;61956;52.540;13.382;2023-06-22T13:38:00;99678.97;;;29.39
73662;BMP280;61956;52.540;13.382;2023-06-22T13:40:32;99966.81;;;29.42
73662;BMP280;61956;52.540;13.382;2023-06-22T13:43:02;99960.66;;;29.38
73662;BMP280;61956;52.540;13.382;2023-06-22T13:45:31;99853.41;;;29.43
73662;BMP280;61956;52.540;13.382;2023-06-22T13:48:00;99744.22;;;29.38
73662;BMP280;61956;52.540;13.382;2023-06-22T13:50:30;100111.91;;;29.46
73662;BMP280;61956;52.540;13.382;2023-06-22T13:52:59;100755.94;;;29.62
73662;BMP280;61956;52.540;13.382;2023-06-22T13:55:28;99691.88;;;29.51
73662;BMP280;61956;52.540;13.382;2023-06-22T13:58:00;100146.28;;;29.51
73662;BMP280;61956;52.540;13.382;2023-06-22T14:00:29;100262.38;;;29.53
73662;BMP280;61956;52.540;13.382;2023-06-22T14:02:58;100123.38;;;29.53
73662;BMP280;61956;52.540;13.382;2023-06-22T14:05:28;100828.59;;;29.67
73662;BMP280;61956;52.540;13.382;2023-06-22T14:07:57;100350.69;;;29.64
73662;BMP280;61956;52.540;13.382;2023-06-22T14:10:27;100386.94;;;29.65
73662;BMP280;61956;52.540;13.382;2023-06-22T14:12:59;99922.47;;;29.62